sensor_id;sensor_type;location;lat;lon;timestamp;P1;durP1;ratioP1;P2;durP2;ratioP2
28481;SDS011;15703;49.588;6.260;2023-09-19T00:01:36;4.63;;;2.88;;
28481;SDS011;15703;49.588;6.260;2023-09-19T00:03:58;7.05;;;3.03;;
28481;SDS011;15703;49.588;6.260;2023-09-19T00:06:22;6.57;;;3.78;;
28481;SDS011;15703;49.588;6.260;2023-09-19T00:08:47;8.07;;;2.92;;
28481;SDS011;15703;49.588;6.260;2023-09-19T00:11:09;8.68;;;3.78;;
28481;SDS011;15703;49.588;6.260;2023-09-19T00:13:32;10.80;;;3.88;;
28481;SDS011;15703;49.588;6.260;2023-09-19T00:15:57;4.53;;;3.33;;
28481;SDS011;15703;49.588;6.260;2023-09-19T00:18:20;4.47;;;3.60;;
28481;SDS011;15703;49.588;6.260;2023-09-19T00:20:44;6.18;;;3.65;;
28481;SDS011;15703;49.588;6.260;2023-09-19T00:23:10;5.75;;;4.18;;
28481;SDS011;15703;49.588;6.260;2023-09-19T00:25:33;9.50;;;3.85;;
28481;SDS011;15703;49.588;6.260;2023-09-19T00:27:57;5.35;;;3.70;;
28481;SDS011;15703;49.588;6.260;2023-09-19T00:30:20;6.60;;;3.03;;
28481;SDS011;15703;49.588;6.260;2023-09-19T00:32:45;8.80;;;3.60;;
28481;SDS011;15703;49.588;6.260;2023-09-19T00:35:14;6.00;;;3.38;;
28481;SDS011;15703;49.588;6.260;2023-09-19T00:37:37;6.97;;;3.72;;
28481;SDS011;15703;49.588;6.260;2023-09-19T00:40:03;8.10;;;3.70;;
28481;SDS011;15703;49.588;6.260;2023-09-19T00:42:26;6.70;;;3.90;;
28481;SDS011;15703;49.588;6.260;2023-09-19T00:44:49;8.38;;;3.63;;
28481;SDS011;15703;49.588;6.260;2023-09-19T00:47:12;8.07;;;3.70;;
28481;SDS011;15703;49.588;6.260;2023-09-19T00:49:39;11.23;;;4.13;;
28481;SDS011;15703;49.588;6.260;2023-09-19T00:52:01;7.07;;;3.40;;
28481;SDS011;15703;49.588;6.260;2023-09-19T00:54:26;8.18;;;3.33;;
28481;SDS011;15703;49.588;6.260;2023-09-19T00:56:49;9.18;;;3.60;;
28481;SDS011;15703;49.588;6.260;2023-09-19T00:59:12;6.60;;;3.55;;
28481;SDS011;15703;49.588;6.260;2023-09-19T01:01:34;8.00;;;3.63;;
28481;SDS011;15703;49.588;6.260;2023-09-19T01:03:58;9.20;;;3.10;;
28481;SDS011;15703;49.588;6.260;2023-09-19T01:06:20;11.23;;;3.50;;
28481;SDS011;15703;49.588;6.260;2023-09-19T01:08:43;7.22;;;3.50;;
28481;SDS011;15703;49.588;6.260;2023-09-19T01:11:13;6.70;;;3.45;;
28481;SDS011;15703;49.588;6.260;2023-09-19T01:19:19;11.02;;;3.45;;
28481;SDS011;15703;49.588;6.260;2023-09-19T01:21:57;6.07;;;3.20;;
28481;SDS011;15703;49.588;6.260;2023-09-19T01:24:46;7.47;;;3.42;;
28481;SDS011;15703;49.588;6.260;2023-09-19T01:27:29;10.77;;;3.63;;
28481;SDS011;15703;49.588;6.260;2023-09-19T01:30:00;8.07;;;3.97;;
28481;SDS011;15703;49.588;6.260;2023-09-19T01:32:22;6.80;;;4.13;;
28481;SDS011;15703;49.588;6.260;2023-09-19T01:34:47;5.97;;;3.70;;
28481;SDS011;15703;49.588;6.260;2023-09-19T01:37:10;9.23;;;4.43;;
28481;SDS011;15703;49.588;6.260;2023-09-19T01:39:32;8.25;;;3.65;;
28481;SDS011;15703;49.588;6.260;2023-09-19T01:44:23;9.77;;;3.67;;
28481;SDS011;15703;49.588;6.260;2023-09-19T01:46:47;9.05;;;3.67;;
28481;SDS011;15703;49.588;6.260;2023-09-19T01:54:18;6.90;;;2.67;;
28481;SDS011;15703;49.588;6.260;2023-09-19T01:56:57;8.63;;;3.25;;
28481;SDS011;15703;49.588;6.260;2023-09-19T01:59:26;7.68;;;2.97;;
28481;SDS011;15703;49.588;6.260;2023-09-19T02:01:50;5.20;;;2.88;;
28481;SDS011;15703;49.588;6.260;2023-09-19T02:04:14;7.43;;;3.17;;
28481;SDS011;15703;49.588;6.260;2023-09-19T02:06:40;10.60;;;3.05;;
28481;SDS011;15703;49.588;6.260;2023-09-19T02:09:08;5.63;;;2.72;;
28481;SDS011;15703;49.588;6.260;2023-09-19T02:11:30;8.43;;;3.17;;
28481;SDS011;15703;49.588;6.260;2023-09-19T02:13:53;5.97;;;2.97;;
28481;SDS011;15703;49.588;6.260;2023-09-19T02:16:16;6.47;;;2.60;;
28481;SDS011;15703;49.588;6.260;2023-09-19T02:18:42;6.97;;;2.40;;
28481;SDS011;15703;49.588;6.260;2023-09-19T02:21:04;9.32;;;2.70;;
28481;SDS011;15703;49.588;6.260;2023-09-19T02:23:32;6.97;;;2.28;;
28481;SDS011;15703;49.588;6.260;2023-09-19T02:25:55;6.85;;;3.10;;
28481;SDS011;15703;49.588;6.260;2023-09-19T02:28:21;10.30;;;2.38;;
28481;SDS011;15703;49.588;6.260;2023-09-19T02:30:48;8.48;;;2.60;;
28481;SDS011;15703;49.588;6.260;2023-09-19T02:33:11;6.70;;;2.38;;
28481;SDS011;15703;49.588;6.260;2023-09-19T02:35:34;6.22;;;2.67;;
28481;SDS011;15703;49.588;6.260;2023-09-19T02:37:57;7.97;;;2.58;;
28481;SDS011;15703;49.588;6.260;2023-09-19T02:40:20;8.82;;;2.28;;
28481;SDS011;15703;49.588;6.260;2023-09-19T02:42:47;8.35;;;2.60;;
28481;SDS011;15703;49.588;6.260;2023-09-19T02:45:12;7.07;;;2.17;;
28481;SDS011;15703;49.588;6.260;2023-09-19T02:47:35;6.70;;;2.40;;
28481;SDS011;15703;49.588;6.260;2023-09-19T02:49:57;6.13;;;2.55;;
28481;SDS011;15703;49.588;6.260;2023-09-19T02:52:19;5.95;;;2.40;;
28481;SDS011;15703;49.588;6.260;2023-09-19T02:54:42;5.25;;;2.42;;
28481;SDS011;15703;49.588;6.260;2023-09-19T02:57:06;4.90;;;2.55;;
28481;SDS011;15703;49.588;6.260;2023-09-19T02:59:29;5.72;;;2.60;;
28481;SDS011;15703;49.588;6.260;2023-09-19T03:01:53;7.47;;;2.45;;
28481;SDS011;15703;49.588;6.260;2023-09-19T03:04:16;10.18;;;3.08;;
28481;SDS011;15703;49.588;6.260;2023-09-19T03:06:42;4.47;;;2.08;;
28481;SDS011;15703;49.588;6.260;2023-09-19T03:09:06;8.00;;;2.40;;
28481;SDS011;15703;49.588;6.260;2023-09-19T03:11:35;10.25;;;2.78;;
28481;SDS011;15703;49.588;6.260;2023-09-19T03:13:57;4.95;;;2.50;;
28481;SDS011;15703;49.588;6.260;2023-09-19T03:16:19;6.18;;;2.30;;
28481;SDS011;15703;49.588;6.260;2023-09-19T03:18:49;6.78;;;2.33;;
28481;SDS011;15703;49.588;6.260;2023-09-19T03:21:12;3.33;;;2.47;;
28481;SDS011;15703;49.588;6.260;2023-09-19T03:23:35;5.05;;;2.10;;
28481;SDS011;15703;49.588;6.260;2023-09-19T03:26:00;7.47;;;2.47;;
28481;SDS011;15703;49.588;6.260;2023-09-19T03:28:23;4.13;;;2.00;;
28481;SDS011;15703;49.588;6.260;2023-09-19T03:31:00;6.50;;;2.45;;
28481;SDS011;15703;49.588;6.260;2023-09-19T03:33:24;8.30;;;2.78;;
28481;SDS011;15703;49.588;6.260;2023-09-19T03:35:51;6.13;;;2.88;;
28481;SDS011;15703;49.588;6.260;2023-09-19T03:38:14;4.60;;;2.33;;
28481;SDS011;15703;49.588;6.260;2023-09-19T03:40:36;8.30;;;2.70;;
28481;SDS011;15703;49.588;6.260;2023-09-19T03:43:02;4.22;;;2.60;;
28481;SDS011;15703;49.588;6.260;2023-09-19T03:45:25;6.53;;;2.60;;
28481;SDS011;15703;49.588;6.260;2023-09-19T03:47:48;8.82;;;2.42;;
28481;SDS011;15703;49.588;6.260;2023-09-19T03:50:14;4.60;;;2.50;;
28481;SDS011;15703;49.588;6.260;2023-09-19T03:52:38;7.28;;;2.30;;
28481;SDS011;15703;49.588;6.260;2023-09-19T03:55:01;4.75;;;2.50;;
28481;SDS011;15703;49.588;6.260;2023-09-19T03:57:27;9.60;;;2.60;;
28481;SDS011;15703;49.588;6.260;2023-09-19T03:59:49;6.45;;;2.30;;
28481;SDS011;15703;49.588;6.260;2023-09-19T04:02:14;6.57;;;2.33;;
28481;SDS011;15703;49.588;6.260;2023-09-19T04:04:44;7.53;;;2.43;;
28481;SDS011;15703;49.588;6.260;2023-09-19T04:07:07;9.57;;;3.08;;
28481;SDS011;15703;49.588;6.260;2023-09-19T04:09:29;6.40;;;2.35;;
28481;SDS011;15703;49.588;6.260;2023-09-19T04:11:52;5.03;;;2.17;;
28481;SDS011;15703;49.588;6.260;2023-09-19T04:14:15;5.27;;;2.80;;
28481;SDS011;15703;49.588;6.260;2023-09-19T04:16:37;6.07;;;2.30;;
28481;SDS011;15703;49.588;6.260;2023-09-19T04:19:00;7.68;;;3.55;;
28481;SDS011;15703;49.588;6.260;2023-09-19T04:21:23;7.22;;;3.00;;
28481;SDS011;15703;49.588;6.260;2023-09-19T04:23:46;8.68;;;3.13;;
28481;SDS011;15703;49.588;6.260;2023-09-19T04:26:08;7.68;;;2.83;;
28481;SDS011;15703;49.588;6.260;2023-09-19T04:28:31;6.40;;;2.50;;
28481;SDS011;15703;49.588;6.260;2023-09-19T04:30:56;9.35;;;2.97;;
28481;SDS011;15703;49.588;6.260;2023-09-19T04:33:19;10.43;;;2.85;;
28481;SDS011;15703;49.588;6.260;2023-09-19T04:35:42;7.72;;;2.30;;
28481;SDS011;15703;49.588;6.260;2023-09-19T04:38:05;8.07;;;2.73;;
28481;SDS011;15703;49.588;6.260;2023-09-19T04:40:29;11.43;;;3.13;;
28481;SDS011;15703;49.588;6.260;2023-09-19T04:42:58;11.73;;;2.90;;
28481;SDS011;15703;49.588;6.260;2023-09-19T04:45:21;10.02;;;2.85;;
28481;SDS011;15703;49.588;6.260;2023-09-19T04:47:43;8.13;;;3.13;;
28481;SDS011;15703;49.588;6.260;2023-09-19T04:50:07;7.20;;;2.65;;
28481;SDS011;15703;49.588;6.260;2023-09-19T04:52:31;7.50;;;3.13;;
28481;SDS011;15703;49.588;6.260;2023-09-19T04:54:54;9.80;;;3.03;;
28481;SDS011;15703;49.588;6.260;2023-09-19T04:57:17;6.43;;;2.60;;
28481;SDS011;15703;49.588;6.260;2023-09-19T04:59:39;4.87;;;2.93;;
28481;SDS011;15703;49.588;6.260;2023-09-19T05:02:02;10.17;;;3.13;;
28481;SDS011;15703;49.588;6.260;2023-09-19T05:04:25;6.67;;;2.97;;
28481;SDS011;15703;49.588;6.260;2023-09-19T05:06:47;6.80;;;2.90;;
28481;SDS011;15703;49.588;6.260;2023-09-19T05:09:09;8.30;;;3.07;;
28481;SDS011;15703;49.588;6.260;2023-09-19T05:11:31;11.53;;;2.90;;
28481;SDS011;15703;49.588;6.260;2023-09-19T05:13:55;7.87;;;2.43;;
28481;SDS011;15703;49.588;6.260;2023-09-19T05:16:17;6.67;;;2.47;;
28481;SDS011;15703;49.588;6.260;2023-09-19T05:18:39;8.73;;;3.20;;
28481;SDS011;15703;49.588;6.260;2023-09-19T05:21:02;12.00;;;2.83;;
28481;SDS011;15703;49.588;6.260;2023-09-19T05:23:24;9.50;;;3.40;;
28481;SDS011;15703;49.588;6.260;2023-09-19T05:25:48;11.50;;;2.97;;
28481;SDS011;15703;49.588;6.260;2023-09-19T05:28:10;11.33;;;2.80;;
28481;SDS011;15703;49.588;6.260;2023-09-19T05:30:36;8.47;;;3.50;;
28481;SDS011;15703;49.588;6.260;2023-09-19T05:33:00;9.57;;;3.00;;
28481;SDS011;15703;49.588;6.260;2023-09-19T05:35:23;10.63;;;3.10;;
28481;SDS011;15703;49.588;6.260;2023-09-19T05:37:46;11.87;;;2.80;;
28481;SDS011;15703;49.588;6.260;2023-09-19T05:40:09;11.63;;;2.77;;
28481;SDS011;15703;49.588;6.260;2023-09-19T05:42:32;11.17;;;3.87;;
28481;SDS011;15703;49.588;6.260;2023-09-19T05:44:54;7.13;;;3.13;;
28481;SDS011;15703;49.588;6.260;2023-09-19T05:47:16;11.53;;;3.03;;
28481;SDS011;15703;49.588;6.260;2023-09-19T05:49:39;7.03;;;2.90;;
28481;SDS011;15703;49.588;6.260;2023-09-19T05:52:02;8.20;;;2.87;;
28481;SDS011;15703;49.588;6.260;2023-09-19T05:54:24;10.33;;;3.73;;
28481;SDS011;15703;49.588;6.260;2023-09-19T05:56:47;11.10;;;2.97;;
28481;SDS011;15703;49.588;6.260;2023-09-19T05:59:10;7.60;;;2.70;;
28481;SDS011;15703;49.588;6.260;2023-09-19T06:01:32;9.75;;;3.17;;
28481;SDS011;15703;49.588;6.260;2023-09-19T06:03:55;11.33;;;3.07;;
28481;SDS011;15703;49.588;6.260;2023-09-19T06:06:17;9.57;;;2.77;;
28481;SDS011;15703;49.588;6.260;2023-09-19T06:08:40;8.77;;;2.90;;
28481;SDS011;15703;49.588;6.260;2023-09-19T06:11:05;8.30;;;2.83;;
28481;SDS011;15703;49.588;6.260;2023-09-19T06:13:28;6.82;;;2.60;;
28481;SDS011;15703;49.588;6.260;2023-09-19T06:15:50;9.97;;;2.60;;
28481;SDS011;15703;49.588;6.260;2023-09-19T06:18:13;8.05;;;3.05;;
28481;SDS011;15703;49.588;6.260;2023-09-19T06:20:38;8.95;;;2.95;;
28481;SDS011;15703;49.588;6.260;2023-09-19T06:23:06;16.13;;;3.47;;
28481;SDS011;15703;49.588;6.260;2023-09-19T06:25:28;8.50;;;3.05;;
28481;SDS011;15703;49.588;6.260;2023-09-19T06:27:52;8.38;;;3.25;;
28481;SDS011;15703;49.588;6.260;2023-09-19T06:30:18;9.95;;;3.08;;
28481;SDS011;15703;49.588;6.260;2023-09-19T06:32:43;8.27;;;2.77;;
28481;SDS011;15703;49.588;6.260;2023-09-19T06:35:06;12.75;;;3.03;;
28481;SDS011;15703;49.588;6.260;2023-09-19T06:37:30;8.13;;;3.40;;
28481;SDS011;15703;49.588;6.260;2023-09-19T06:39:53;8.25;;;2.67;;
28481;SDS011;15703;49.588;6.260;2023-09-19T06:42:15;10.52;;;2.40;;
28481;SDS011;15703;49.588;6.260;2023-09-19T06:44:42;9.15;;;2.17;;
28481;SDS011;15703;49.588;6.260;2023-09-19T06:47:04;6.72;;;2.45;;
28481;SDS011;15703;49.588;6.260;2023-09-19T06:49:28;12.13;;;2.97;;
28481;SDS011;15703;49.588;6.260;2023-09-19T06:51:50;8.40;;;2.40;;
28481;SDS011;15703;49.588;6.260;2023-09-19T06:54:16;11.10;;;2.78;;
28481;SDS011;15703;49.588;6.260;2023-09-19T06:56:39;6.55;;;2.30;;
28481;SDS011;15703;49.588;6.260;2023-09-19T06:59:02;8.43;;;2.38;;
28481;SDS011;15703;49.588;6.260;2023-09-19T07:01:27;7.20;;;2.78;;
28481;SDS011;15703;49.588;6.260;2023-09-19T07:03:50;8.30;;;2.70;;
28481;SDS011;15703;49.588;6.260;2023-09-19T07:06:12;12.52;;;2.88;;
28481;SDS011;15703;49.588;6.260;2023-09-19T07:08:34;12.52;;;2.80;;
28481;SDS011;15703;49.588;6.260;2023-09-19T07:10:57;10.57;;;2.72;;
28481;SDS011;15703;49.588;6.260;2023-09-19T07:13:19;8.73;;;2.88;;
28481;SDS011;15703;49.588;6.260;2023-09-19T07:15:43;6.65;;;2.28;;
28481;SDS011;15703;49.588;6.260;2023-09-19T07:18:09;6.38;;;2.63;;
28481;SDS011;15703;49.588;6.260;2023-09-19T07:20:32;10.98;;;2.28;;
28481;SDS011;15703;49.588;6.260;2023-09-19T07:22:56;9.05;;;2.70;;
28481;SDS011;15703;49.588;6.260;2023-09-19T07:25:23;5.85;;;2.30;;
28481;SDS011;15703;49.588;6.260;2023-09-19T07:27:46;7.10;;;2.78;;
28481;SDS011;15703;49.588;6.260;2023-09-19T07:30:09;7.82;;;2.42;;
28481;SDS011;15703;49.588;6.260;2023-09-19T07:32:32;6.47;;;2.15;;
28481;SDS011;15703;49.588;6.260;2023-09-19T07:34:57;6.45;;;2.72;;
28481;SDS011;15703;49.588;6.260;2023-09-19T07:37:20;8.32;;;2.38;;
28481;SDS011;15703;49.588;6.260;2023-09-19T07:39:43;8.65;;;2.45;;
28481;SDS011;15703;49.588;6.260;2023-09-19T07:42:06;10.02;;;2.45;;
28481;SDS011;15703;49.588;6.260;2023-09-19T07:44:28;8.30;;;2.50;;
28481;SDS011;15703;49.588;6.260;2023-09-19T07:46:50;7.93;;;2.22;;
28481;SDS011;15703;49.588;6.260;2023-09-19T07:49:13;5.40;;;2.20;;
28481;SDS011;15703;49.588;6.260;2023-09-19T07:51:39;7.38;;;2.55;;
28481;SDS011;15703;49.588;6.260;2023-09-19T07:54:02;6.15;;;2.22;;
28481;SDS011;15703;49.588;6.260;2023-09-19T07:56:24;6.97;;;2.38;;
28481;SDS011;15703;49.588;6.260;2023-09-19T07:58:48;11.35;;;2.28;;
28481;SDS011;15703;49.588;6.260;2023-09-19T08:01:12;11.15;;;2.50;;
28481;SDS011;15703;49.588;6.260;2023-09-19T08:03:36;8.57;;;2.17;;
28481;SDS011;15703;49.588;6.260;2023-09-19T08:06:05;10.38;;;2.90;;
28481;SDS011;15703;49.588;6.260;2023-09-19T08:08:28;7.65;;;2.30;;
28481;SDS011;15703;49.588;6.260;2023-09-19T08:10:54;7.13;;;1.90;;
28481;SDS011;15703;49.588;6.260;2023-09-19T08:13:17;5.40;;;1.75;;
28481;SDS011;15703;49.588;6.260;2023-09-19T08:15:43;7.70;;;2.13;;
28481;SDS011;15703;49.588;6.260;2023-09-19T08:18:06;7.72;;;2.22;;
28481;SDS011;15703;49.588;6.260;2023-09-19T08:20:29;9.27;;;2.20;;
28481;SDS011;15703;49.588;6.260;2023-09-19T08:22:53;9.65;;;2.85;;
28481;SDS011;15703;49.588;6.260;2023-09-19T08:25:16;8.13;;;2.30;;
28481;SDS011;15703;49.588;6.260;2023-09-19T08:27:42;7.63;;;2.10;;
28481;SDS011;15703;49.588;6.260;2023-09-19T08:30:06;7.90;;;2.17;;
28481;SDS011;15703;49.588;6.260;2023-09-19T08:32:29;9.35;;;2.47;;
28481;SDS011;15703;49.588;6.260;2023-09-19T08:34:51;6.28;;;2.20;;
28481;SDS011;15703;49.588;6.260;2023-09-19T08:37:14;10.55;;;2.15;;
28481;SDS011;15703;49.588;6.260;2023-09-19T08:39:38;5.80;;;1.80;;
28481;SDS011;15703;49.588;6.260;2023-09-19T08:42:01;5.88;;;1.95;;
28481;SDS011;15703;49.588;6.260;2023-09-19T08:44:23;5.35;;;2.42;;
28481;SDS011;15703;49.588;6.260;2023-09-19T08:46:45;4.07;;;2.05;;
28481;SDS011;15703;49.588;6.260;2023-09-19T08:49:14;12.52;;;2.58;;
28481;SDS011;15703;49.588;6.260;2023-09-19T08:51:45;5.53;;;1.88;;
28481;SDS011;15703;49.588;6.260;2023-09-19T08:54:07;4.18;;;1.50;;
28481;SDS011;15703;49.588;6.260;2023-09-19T08:56:34;5.82;;;1.98;;
28481;SDS011;15703;49.588;6.260;2023-09-19T08:59:02;7.25;;;2.17;;
28481;SDS011;15703;49.588;6.260;2023-09-19T09:01:28;9.50;;;2.13;;
28481;SDS011;15703;49.588;6.260;2023-09-19T09:03:54;4.00;;;1.60;;
28481;SDS011;15703;49.588;6.260;2023-09-19T09:06:16;7.35;;;2.00;;
28481;SDS011;15703;49.588;6.260;2023-09-19T09:08:39;8.40;;;2.53;;
28481;SDS011;15703;49.588;6.260;2023-09-19T09:11:02;8.23;;;1.58;;
28481;SDS011;15703;49.588;6.260;2023-09-19T09:13:24;8.85;;;1.60;;
28481;SDS011;15703;49.588;6.260;2023-09-19T09:15:47;7.53;;;1.60;;
28481;SDS011;15703;49.588;6.260;2023-09-19T09:18:10;4.40;;;1.85;;
28481;SDS011;15703;49.588;6.260;2023-09-19T09:20:33;8.35;;;1.60;;
28481;SDS011;15703;49.588;6.260;2023-09-19T09:22:55;4.78;;;1.70;;
28481;SDS011;15703;49.588;6.260;2023-09-19T09:25:24;8.35;;;1.83;;
28481;SDS011;15703;49.588;6.260;2023-09-19T09:28:07;4.53;;;1.60;;
28481;SDS011;15703;49.588;6.260;2023-09-19T09:30:33;6.10;;;1.65;;
28481;SDS011;15703;49.588;6.260;2023-09-19T09:33:17;9.00;;;2.30;;
28481;SDS011;15703;49.588;6.260;2023-09-19T09:35:49;7.05;;;1.50;;
28481;SDS011;15703;49.588;6.260;2023-09-19T09:38:15;7.40;;;2.03;;
28481;SDS011;15703;49.588;6.260;2023-09-19T09:40:46;4.57;;;1.60;;
28481;SDS011;15703;49.588;6.260;2023-09-19T09:45:50;4.55;;;1.42;;
28481;SDS011;15703;49.588;6.260;2023-09-19T09:48:40;7.22;;;1.70;;
28481;SDS011;15703;49.588;6.260;2023-09-19T09:51:07;5.30;;;1.52;;
28481;SDS011;15703;49.588;6.260;2023-09-19T09:53:29;7.95;;;1.45;;
28481;SDS011;15703;49.588;6.260;2023-09-19T09:56:02;4.75;;;1.88;;
28481;SDS011;15703;49.588;6.260;2023-09-19T09:58:28;6.53;;;1.48;;
28481;SDS011;15703;49.588;6.260;2023-09-19T10:00:57;7.03;;;1.98;;
28481;SDS011;15703;49.588;6.260;2023-09-19T10:03:36;7.75;;;1.83;;
28481;SDS011;15703;49.588;6.260;2023-09-19T10:06:03;6.05;;;1.65;;
28481;SDS011;15703;49.588;6.260;2023-09-19T10:08:39;4.40;;;1.20;;
28481;SDS011;15703;49.588;6.260;2023-09-19T10:11:15;5.43;;;1.58;;
28481;SDS011;15703;49.588;6.260;2023-09-19T10:13:37;5.50;;;1.52;;
28481;SDS011;15703;49.588;6.260;2023-09-19T10:16:05;4.72;;;1.70;;
28481;SDS011;15703;49.588;6.260;2023-09-19T10:18:31;4.13;;;1.42;;
28481;SDS011;15703;49.588;6.260;2023-09-19T10:20:54;7.05;;;1.75;;
28481;SDS011;15703;49.588;6.260;2023-09-19T10:23:18;5.82;;;1.70;;
28481;SDS011;15703;49.588;6.260;2023-09-19T10:25:45;5.63;;;1.13;;
28481;SDS011;15703;49.588;6.260;2023-09-19T10:28:09;6.28;;;1.67;;
28481;SDS011;15703;49.588;6.260;2023-09-19T10:30:35;7.05;;;1.45;;
28481;SDS011;15703;49.588;6.260;2023-09-19T10:33:01;5.32;;;1.65;;
28481;SDS011;15703;49.588;6.260;2023-09-19T10:35:24;5.43;;;1.30;;
28481;SDS011;15703;49.588;6.260;2023-09-19T10:37:47;6.28;;;1.77;;
28481;SDS011;15703;49.588;6.260;2023-09-19T10:40:11;3.85;;;1.10;;
28481;SDS011;15703;49.588;6.260;2023-09-19T10:42:37;3.40;;;1.45;;
28481;SDS011;15703;49.588;6.260;2023-09-19T10:45:00;4.50;;;1.27;;
28481;SDS011;15703;49.588;6.260;2023-09-19T10:47:25;4.63;;;1.42;;
28481;SDS011;15703;49.588;6.260;2023-09-19T10:49:48;6.65;;;1.63;;
28481;SDS011;15703;49.588;6.260;2023-09-19T10:52:11;5.95;;;1.45;;
28481;SDS011;15703;49.588;6.260;2023-09-19T10:54:36;5.60;;;1.48;;
28481;SDS011;15703;49.588;6.260;2023-09-19T10:57:00;4.65;;;1.27;;
28481;SDS011;15703;49.588;6.260;2023-09-19T10:59:26;5.78;;;1.73;;
28481;SDS011;15703;49.588;6.260;2023-09-19T11:01:56;4.47;;;1.58;;
28481;SDS011;15703;49.588;6.260;2023-09-19T11:04:26;6.28;;;1.40;;
28481;SDS011;15703;49.588;6.260;2023-09-19T11:07:03;4.40;;;1.17;;
28481;SDS011;15703;49.588;6.260;2023-09-19T11:14:52;4.88;;;1.50;;
28481;SDS011;15703;49.588;6.260;2023-09-19T11:30:38;3.10;;;1.33;;
28481;SDS011;15703;49.588;6.260;2023-09-19T11:43:53;2.92;;;1.33;;
28481;SDS011;15703;49.588;6.260;2023-09-19T11:46:21;5.85;;;1.35;;
28481;SDS011;15703;49.588;6.260;2023-09-19T11:48:44;3.42;;;1.40;;
28481;SDS011;15703;49.588;6.260;2023-09-19T11:51:20;4.20;;;1.15;;
28481;SDS011;15703;49.588;6.260;2023-09-19T11:53:47;2.97;;;1.20;;
28481;SDS011;15703;49.588;6.260;2023-09-19T11:56:10;4.88;;;1.48;;
28481;SDS011;15703;49.588;6.260;2023-09-19T11:58:32;5.18;;;1.45;;
28481;SDS011;15703;49.588;6.260;2023-09-19T12:00:55;3.90;;;1.52;;
28481;SDS011;15703;49.588;6.260;2023-09-19T12:03:22;4.07;;;1.27;;
28481;SDS011;15703;49.588;6.260;2023-09-19T12:05:45;3.25;;;1.50;;
28481;SDS011;15703;49.588;6.260;2023-09-19T12:08:07;2.75;;;1.10;;
28481;SDS011;15703;49.588;6.260;2023-09-19T12:10:30;4.25;;;1.83;;
28481;SDS011;15703;49.588;6.260;2023-09-19T12:12:52;3.15;;;1.38;;
28481;SDS011;15703;49.588;6.260;2023-09-19T12:15:23;2.75;;;1.02;;
28481;SDS011;15703;49.588;6.260;2023-09-19T12:17:49;2.42;;;1.17;;
28481;SDS011;15703;49.588;6.260;2023-09-19T12:20:12;4.70;;;1.30;;
28481;SDS011;15703;49.588;6.260;2023-09-19T12:22:41;2.53;;;1.10;;
28481;SDS011;15703;49.588;6.260;2023-09-19T12:25:06;2.75;;;1.42;;
28481;SDS011;15703;49.588;6.260;2023-09-19T12:27:28;4.13;;;1.20;;
28481;SDS011;15703;49.588;6.260;2023-09-19T12:29:52;4.10;;;1.73;;
28481;SDS011;15703;49.588;6.260;2023-09-19T12:32:16;1.98;;;1.08;;
28481;SDS011;15703;49.588;6.260;2023-09-19T12:34:49;2.80;;;1.33;;
28481;SDS011;15703;49.588;6.260;2023-09-19T12:37:14;4.72;;;1.40;;
28481;SDS011;15703;49.588;6.260;2023-09-19T12:39:43;3.17;;;1.25;;
28481;SDS011;15703;49.588;6.260;2023-09-19T12:42:10;3.20;;;1.40;;
28481;SDS011;15703;49.588;6.260;2023-09-19T12:44:39;3.38;;;1.42;;
28481;SDS011;15703;49.588;6.260;2023-09-19T12:49:32;3.75;;;1.35;;
28481;SDS011;15703;49.588;6.260;2023-09-19T12:51:54;3.70;;;1.15;;
28481;SDS011;15703;49.588;6.260;2023-09-19T12:54:20;5.18;;;1.20;;
28481;SDS011;15703;49.588;6.260;2023-09-19T12:56:44;3.72;;;1.23;;
28481;SDS011;15703;49.588;6.260;2023-09-19T12:59:06;3.33;;;1.40;;
28481;SDS011;15703;49.588;6.260;2023-09-19T13:01:31;3.22;;;1.10;;
28481;SDS011;15703;49.588;6.260;2023-09-19T13:06:40;4.25;;;1.20;;
28481;SDS011;15703;49.588;6.260;2023-09-19T13:09:11;1.90;;;0.88;;
28481;SDS011;15703;49.588;6.260;2023-09-19T13:11:36;3.90;;;0.93;;
28481;SDS011;15703;49.588;6.260;2023-09-19T13:14:17;2.22;;;0.95;;
28481;SDS011;15703;49.588;6.260;2023-09-19T13:19:51;3.20;;;1.00;;
28481;SDS011;15703;49.588;6.260;2023-09-19T13:25:00;2.47;;;0.93;;
28481;SDS011;15703;49.588;6.260;2023-09-19T13:27:25;2.10;;;1.17;;
28481;SDS011;15703;49.588;6.260;2023-09-19T13:29:49;3.25;;;0.95;;
28481;SDS011;15703;49.588;6.260;2023-09-19T13:32:18;3.55;;;0.93;;
28481;SDS011;15703;49.588;6.260;2023-09-19T13:34:40;3.47;;;1.05;;
28481;SDS011;15703;49.588;6.260;2023-09-19T13:37:03;2.65;;;1.23;;
28481;SDS011;15703;49.588;6.260;2023-09-19T13:39:26;5.85;;;1.02;;
28481;SDS011;15703;49.588;6.260;2023-09-19T13:41:48;4.38;;;1.10;;
28481;SDS011;15703;49.588;6.260;2023-09-19T13:44:10;1.90;;;1.13;;
28481;SDS011;15703;49.588;6.260;2023-09-19T13:46:33;5.13;;;1.30;;
28481;SDS011;15703;49.588;6.260;2023-09-19T13:48:56;2.38;;;1.08;;
28481;SDS011;15703;49.588;6.260;2023-09-19T13:51:22;3.03;;;1.30;;
28481;SDS011;15703;49.588;6.260;2023-09-19T13:53:45;1.98;;;0.93;;
28481;SDS011;15703;49.588;6.260;2023-09-19T13:56:07;2.25;;;1.10;;
28481;SDS011;15703;49.588;6.260;2023-09-19T13:58:29;3.25;;;1.08;;
28481;SDS011;15703;49.588;6.260;2023-09-19T14:00:56;2.72;;;0.90;;
28481;SDS011;15703;49.588;6.260;2023-09-19T14:03:19;3.28;;;1.10;;
28481;SDS011;15703;49.588;6.260;2023-09-19T14:05:43;4.93;;;1.33;;
28481;SDS011;15703;49.588;6.260;2023-09-19T14:08:05;2.33;;;1.00;;
28481;SDS011;15703;49.588;6.260;2023-09-19T14:10:28;4.90;;;0.77;;
28481;SDS011;15703;49.588;6.260;2023-09-19T14:12:52;5.03;;;1.02;;
28481;SDS011;15703;49.588;6.260;2023-09-19T14:15:15;2.25;;;0.93;;
28481;SDS011;15703;49.588;6.260;2023-09-19T14:17:37;2.45;;;0.63;;
28481;SDS011;15703;49.588;6.260;2023-09-19T14:20:00;2.22;;;1.05;;
28481;SDS011;15703;49.588;6.260;2023-09-19T14:22:23;3.17;;;1.23;;
28481;SDS011;15703;49.588;6.260;2023-09-19T14:24:45;3.38;;;1.25;;
28481;SDS011;15703;49.588;6.260;2023-09-19T14:27:07;2.70;;;1.00;;
28481;SDS011;15703;49.588;6.260;2023-09-19T14:29:30;2.67;;;0.90;;
28481;SDS011;15703;49.588;6.260;2023-09-19T14:31:53;2.35;;;1.08;;
28481;SDS011;15703;49.588;6.260;2023-09-19T14:34:16;4.32;;;1.10;;
28481;SDS011;15703;49.588;6.260;2023-09-19T14:36:38;2.78;;;1.00;;
28481;SDS011;15703;49.588;6.260;2023-09-19T14:39:01;3.42;;;0.93;;
28481;SDS011;15703;49.588;6.260;2023-09-19T14:41:23;4.57;;;0.75;;
28481;SDS011;15703;49.588;6.260;2023-09-19T14:43:47;2.83;;;1.00;;
28481;SDS011;15703;49.588;6.260;2023-09-19T14:46:09;2.25;;;1.20;;
28481;SDS011;15703;49.588;6.260;2023-09-19T14:48:32;2.35;;;0.80;;
28481;SDS011;15703;49.588;6.260;2023-09-19T14:50:55;3.60;;;0.85;;
28481;SDS011;15703;49.588;6.260;2023-09-19T14:53:19;1.83;;;0.95;;
28481;SDS011;15703;49.588;6.260;2023-09-19T14:55:41;1.77;;;0.93;;
28481;SDS011;15703;49.588;6.260;2023-09-19T14:58:06;3.67;;;1.13;;
28481;SDS011;15703;49.588;6.260;2023-09-19T15:00:29;2.35;;;1.02;;
28481;SDS011;15703;49.588;6.260;2023-09-19T15:02:51;3.38;;;0.98;;
28481;SDS011;15703;49.588;6.260;2023-09-19T15:05:15;5.53;;;1.17;;
28481;SDS011;15703;49.588;6.260;2023-09-19T15:07:41;2.75;;;0.93;;
28481;SDS011;15703;49.588;6.260;2023-09-19T15:10:04;1.20;;;0.68;;
28481;SDS011;15703;49.588;6.260;2023-09-19T15:12:28;2.30;;;0.85;;
28481;SDS011;15703;49.588;6.260;2023-09-19T15:14:50;2.00;;;0.90;;
28481;SDS011;15703;49.588;6.260;2023-09-19T15:17:13;1.33;;;1.02;;
28481;SDS011;15703;49.588;6.260;2023-09-19T15:19:36;2.05;;;1.10;;
28481;SDS011;15703;49.588;6.260;2023-09-19T15:21:59;2.65;;;1.02;;
28481;SDS011;15703;49.588;6.260;2023-09-19T15:24:22;1.85;;;1.10;;
28481;SDS011;15703;49.588;6.260;2023-09-19T15:26:47;2.08;;;1.00;;